Time;durP1;ratioP1;P1;durP2;ratioP2;P2;SDS_P1;SDS_P2;PMS_P1;PMS_P2;Temp;Humidity;BMP_temperature;BMP_pressure;BME280_temperature;BME280_humidity;BME280_pressure;Samples;Min_cycle;Max_cycle;Signal;HPM_P1;HPM_P2
2021/12/27 00:01:29;;;;;;;;;92.00;84.33;;;;;13.37;67.89;100964.62;146612;713;45021;-79
2021/12/27 00:04:21;;;;;;;;;93.33;84.67;;;;;13.40;68.10;100976.91;146606;565;46016;-78
2021/12/27 00:07:14;;;;;;;;;87.00;84.00;;;;;13.44;67.50;100983.13;146613;616;46008;-77
2021/12/27 00:10:08;;;;;;;;;107.33;94.67;;;;;13.45;67.47;100979.69;146607;589;46032;-78
2021/12/27 00:13:02;;;;;;;;;106.33;96.67;;;;;13.44;68.96;100970.13;146610;606;47008;-77
2021/12/27 00:15:54;;;;;;;;;110.00;101.00;;;;;13.38;67.38;100974.22;146609;569;46016;-77
2021/12/27 00:18:47;;;;;;;;;77.33;70.67;;;;;13.35;67.45;100971.50;146610;670;46008;-76
2021/12/27 00:21:39;;;;;;;;;92.33;84.00;;;;;13.33;66.96;100965.34;146610;585;46010;-72
2021/12/27 00:24:31;;;;;;;;;108.00;96.67;;;;;13.35;67.12;100979.31;146614;592;46008;-73
2021/12/27 00:27:24;;;;;;;;;117.00;106.00;;;;;13.36;67.37;100965.47;146607;657;46016;-72
2021/12/27 00:30:20;;;;;;;;;113.50;99.75;;;;;13.31;68.17;100976.50;146614;597;46008;-72
2021/12/27 00:33:12;;;;;;;;;108.67;95.33;;;;;13.25;67.65;100971.91;146605;576;46016;-75
2021/12/27 00:36:04;;;;;;;;;102.67;93.33;;;;;13.24;67.93;100957.09;146611;576;47020;-75
2021/12/27 00:38:56;;;;;;;;;110.67;98.33;;;;;13.22;68.90;100966.53;146610;642;46017;-75
2021/12/27 00:41:48;;;;;;;;;104.67;92.67;;;;;13.18;67.60;100962.91;146611;577;46020;-75
2021/12/27 00:44:41;;;;;;;;;83.67;76.00;;;;;13.18;68.54;100952.50;146606;648;46016;-86
2021/12/27 00:47:33;;;;;;;;;90.67;81.00;;;;;13.18;68.54;100947.28;146608;575;46020;-75
2021/12/27 00:50:25;;;;;;;;;83.67;76.33;;;;;13.20;67.91;100957.75;146605;589;46016;-74
2021/12/27 00:53:18;;;;;;;;;90.67;85.67;;;;;13.22;68.51;100956.13;146611;572;46021;-77
2021/12/27 00:56:10;;;;;;;;;82.67;71.67;;;;;13.24;68.37;100958.78;146605;698;46016;-77
2021/12/27 00:59:02;;;;;;;;;87.67;80.33;;;;;13.26;67.37;100963.25;146607;564;47008;-73
2021/12/27 01:01:56;;;;;;;;;76.00;66.67;;;;;13.29;68.12;100970.34;146603;592;47010;-76
2021/12/27 01:04:48;;;;;;;;;77.33;71.67;;;;;13.29;67.83;100965.13;146611;579;46020;-77
2021/12/27 01:07:40;;;;;;;;;84.00;74.67;;;;;13.30;66.87;100969.50;146607;596;46017;-83
2021/12/27 01:13:47;;;;;;;;;78.67;69.67;;;;;13.30;67.73;100966.88;146605;569;46030;-79
2021/12/27 01:16:39;;;;;;;;;78.67;70.00;;;;;13.24;68.79;100967.50;146612;569;45020;-79
2021/12/27 01:19:32;;;;;;;;;73.33;63.67;;;;;13.19;68.71;100969.00;146600;624;46010;-79
2021/12/27 01:22:24;;;;;;;;;71.00;56.75;;;;;13.13;68.79;100956.59;146603;618;46010;-80
2021/12/27 01:25:17;;;;;;;;;66.50;52.00;;;;;13.11;68.06;100960.84;146603;631;45915;-85
2021/12/27 01:28:11;;;;;;;;;63.75;52.00;;;;;13.13;67.09;100960.91;146605;566;46008;-86
2021/12/27 01:31:04;;;;;;;;;63.50;50.00;;;;;13.16;68.10;100963.66;146601;760;46010;-87
2021/12/27 01:33:57;;;;;;;;;65.00;51.25;;;;;13.17;67.42;100962.81;146604;586;46008;-80
2021/12/27 01:36:49;;;;;;;;;61.25;48.50;;;;;13.21;66.93;100962.16;146599;570;46017;-80
2021/12/27 01:39:41;;;;;;;;;65.50;49.00;;;;;13.25;66.91;100966.72;146607;587;46008;-81
2021/12/27 01:42:33;;;;;;;;;65.50;50.50;;;;;13.28;67.14;100958.16;146599;583;46011;-78
2021/12/27 01:45:28;;;;;;;;;57.00;45.50;;;;;13.26;66.94;100959.78;146604;674;46008;-80
2021/12/27 01:48:23;;;;;;;;;59.75;47.00;;;;;13.23;67.23;100968.31;146597;563;46915;-77
2021/12/27 01:51:18;;;;;;;;;63.25;48.25;;;;;13.20;66.92;100965.56;146604;574;46021;-84
2021/12/27 01:54:11;;;;;;;;;59.25;45.25;;;;;13.20;67.78;100964.69;146601;563;46016;-76
2021/12/27 01:57:04;;;;;;;;;55.00;44.00;;;;;13.15;67.66;100959.28;146601;591;46010;-77
2021/12/27 01:59:56;;;;;;;;;54.00;43.50;;;;;13.08;67.60;100949.41;146600;572;46915;-77
2021/12/27 02:02:50;;;;;;;;;52.25;42.25;;;;;13.04;67.75;100947.50;146602;571;46010;-76
2021/12/27 02:05:42;;;;;;;;;55.50;44.50;;;;;13.03;67.35;100950.94;146600;608;46011;-78
2021/12/27 02:08:34;;;;;;;;;60.00;47.75;;;;;13.02;68.15;100941.31;146602;633;46008;-77
2021/12/27 02:11:27;;;;;;;;;55.75;44.00;;;;;12.97;67.94;100945.44;146600;577;46010;-77
2021/12/27 02:14:19;;;;;;;;;61.75;49.00;;;;;12.92;67.61;100945.22;146603;588;46021;-78
2021/12/27 02:17:11;;;;;;;;;63.25;50.25;;;;;12.89;69.08;100934.66;146601;565;46010;-75
2021/12/27 02:20:03;;;;;;;;;50.50;41.75;;;;;12.83;68.73;100934.38;146604;577;46020;-74
2021/12/27 02:23:00;;;;;;;;;59.00;46.00;;;;;12.74;69.65;100953.09;146603;642;46010;-74
2021/12/27 02:25:54;;;;;;;;;72.25;60.75;;;;;12.70;68.60;100938.16;146606;585;46021;-82
2021/12/27 02:28:47;;;;;;;;;72.25;57.75;;;;;12.70;68.50;100946.84;146599;576;46017;-79
2021/12/27 02:31:40;;;;;;;;;69.75;56.25;;;;;12.71;68.75;100937.34;146605;569;46020;-74
2021/12/27 02:34:32;;;;;;;;;68.25;55.50;;;;;12.73;68.51;100938.28;146601;819;46017;-76
2021/12/27 02:37:24;;;;;;;;;83.33;72.33;;;;;12.68;69.26;100937.22;146606;595;46008;-75
2021/12/27 02:40:17;;;;;;;;;77.50;64.50;;;;;12.64;68.64;100932.66;146600;733;46016;-74
2021/12/27 02:43:15;;;;;;;;;58.50;47.00;;;;;12.62;68.51;100931.72;146603;599;46021;-72
2021/12/27 02:46:10;;;;;;;;;62.75;47.25;;;;;12.53;68.76;100939.97;146599;569;46010;-73
2021/12/27 02:49:02;;;;;;;;;59.50;47.25;;;;;12.46;68.35;100935.28;146601;566;47008;-74
2021/12/27 02:51:55;;;;;;;;;54.75;43.50;;;;;12.45;68.63;100939.59;146600;632;46017;-72
2021/12/27 02:54:49;;;;;;;;;51.75;42.50;;;;;12.40;68.43;100943.72;146600;591;46008;-72
2021/12/27 02:57:41;;;;;;;;;59.00;46.25;;;;;12.35;68.00;100941.72;146597;622;46017;-72
2021/12/27 03:00:39;;;;;;;;;59.75;47.25;;;;;12.30;69.46;100936.28;146601;631;47008;-74
2021/12/27 03:03:32;;;;;;;;;44.75;36.50;;;;;12.25;69.23;100938.69;146597;578;47010;-74
2021/12/27 03:06:25;;;;;;;;;49.00;38.00;;;;;12.19;69.18;100940.97;146603;613;45021;-74
2021/12/27 03:09:17;;;;;;;;;46.00;37.50;;;;;12.15;68.96;100951.13;146600;611;46016;-76
2021/12/27 03:12:14;;;;;;;;;46.50;38.75;;;;;12.10;70.09;100937.94;146600;564;47008;-76
2021/12/27 03:15:06;;;;;;;;;47.00;40.00;;;;;12.02;69.91;100949.66;146597;573;47010;-76
2021/12/27 03:17:59;;;;;;;;;54.00;42.50;;;;;11.96;69.96;100962.34;146601;725;46020;-76
2021/12/27 03:20:53;;;;;;;;;54.50;44.00;;;;;11.93;70.59;100950.13;146600;607;46017;-76
2021/12/27 03:23:47;;;;;;;;;54.50;42.25;;;;;11.88;71.85;100941.19;146597;591;47010;-77
2021/12/27 03:26:40;;;;;;;;;45.00;35.25;;;;;11.80;73.32;100943.38;146597;615;46025;-78
2021/12/27 03:29:32;;;;;;;;;39.75;34.75;;;;;11.77;73.04;100950.13;146601;571;47008;-77
2021/12/27 03:32:24;;;;;;;;;33.50;29.25;;;;;11.76;72.04;100943.16;146598;592;46915;-78
2021/12/27 03:35:25;;;;;;;;;28.25;27.00;;;;;11.78;72.13;100946.72;146601;597;46009;-77
2021/12/27 03:38:17;;;;;;;;;53.25;43.00;;;;;11.79;71.47;100951.97;146599;714;46016;-77
2021/12/27 03:41:15;;;;;;;;;47.25;37.25;;;;;11.84;72.31;100949.63;146604;654;46008;-85
2021/12/27 03:44:08;;;;;;;;;40.00;34.00;;;;;11.83;72.56;100934.84;146599;613;46016;-81
2021/12/27 03:47:00;;;;;;;;;25.75;21.25;;;;;11.82;72.47;100935.66;146599;600;46913;-82
2021/12/27 03:49:52;;;;;;;;;29.75;26.00;;;;;11.85;71.51;100946.25;146597;656;46017;-82
2021/12/27 03:52:45;;;;;;;;;39.00;32.00;;;;;11.90;71.02;100943.84;146599;596;46020;-81
2021/12/27 03:55:38;;;;;;;;;38.50;32.50;;;;;11.96;71.12;100946.75;146596;564;47010;-83
2021/12/27 03:58:35;;;;;;;;;44.50;36.50;;;;;12.01;70.63;100942.69;146602;567;46008;-85
2021/12/27 04:01:29;;;;;;;;;54.00;43.75;;;;;12.08;71.23;100941.28;146597;705;46016;-84
2021/12/27 04:04:21;;;;;;;;;64.00;49.00;;;;;12.16;71.85;100951.22;146602;571;46021;-86
2021/12/27 04:07:13;;;;;;;;;49.25;40.50;;;;;12.19;71.64;100942.69;146596;590;47010;-84
2021/12/27 04:10:06;;;;;;;;;57.50;45.75;;;;;12.21;71.51;100948.84;146600;618;46020;-74
2021/12/27 04:12:59;;;;;;;;;68.25;52.50;;;;;12.21;70.97;100949.75;146598;587;46010;-75
2021/12/27 04:15:53;;;;;;;;;46.00;38.00;;;;;12.23;70.51;100947.22;146603;620;46020;-75
2021/12/27 04:18:45;;;;;;;;;38.00;31.75;;;;;12.24;71.18;100931.69;146600;564;46016;-75
2021/12/27 04:21:37;;;;;;;;;41.75;33.00;;;;;12.22;71.20;100945.44;146602;614;46008;-76
2021/12/27 04:24:30;;;;;;;;;56.25;43.25;;;;;12.19;73.25;100945.28;146597;610;47012;-71
2021/12/27 04:27:22;;;;;;;;;66.25;50.25;;;;;12.15;74.07;100951.13;146602;590;46008;-72
2021/12/27 04:30:15;;;;;;;;;45.00;35.25;;;;;12.10;72.14;100950.03;146600;584;46016;-74
2021/12/27 04:33:07;;;;;;;;;25.50;24.75;;;;;12.10;71.67;100948.34;146601;566;46008;-73
2021/12/27 04:35:59;;;;;;;;;16.50;14.50;;;;;12.06;72.49;100938.63;146595;670;48010;-73
2021/12/27 04:38:52;;;;;;;;;18.75;15.00;;;;;11.99;72.63;100937.44;146601;565;47008;-73
2021/12/27 04:41:44;;;;;;;;;18.75;17.25;;;;;11.96;72.58;100955.47;146598;613;46017;-74
2021/12/27 04:44:37;;;;;;;;;16.00;14.50;;;;;11.96;72.42;100950.28;146606;588;45020;-74
2021/12/27 04:47:29;;;;;;;;;21.50;15.25;;;;;11.99;72.14;100949.50;146597;636;46016;-74
2021/12/27 04:50:23;;;;;;;;;15.00;15.00;;;;;12.00;71.89;100953.91;146603;593;46008;-73
2021/12/27 04:53:15;;;;;;;;;17.25;17.25;;;;;12.02;73.02;100934.97;146600;684;46016;-75
2021/12/27 04:56:08;;;;;;;;;16.25;13.50;;;;;11.97;73.74;100930.38;146602;588;46009;-73
2021/12/27 04:59:00;;;;;;;;;15.75;14.25;;;;;11.93;72.58;100934.53;146596;667;47010;-73
2021/12/27 05:01:52;;;;;;;;;16.25;16.00;;;;;11.95;72.25;100947.59;146603;579;46008;-74
2021/12/27 05:04:44;;;;;;;;;24.25;23.75;;;;;11.97;72.20;100954.66;146598;641;46915;-74
2021/12/27 05:07:36;;;;;;;;;26.00;24.00;;;;;12.01;72.79;100935.78;146601;662;46020;-72
2021/12/27 05:10:32;;;;;;;;;26.00;23.50;;;;;12.02;71.94;100936.66;146597;572;46017;-73
2021/12/27 05:13:25;;;;;;;;;20.50;19.50;;;;;12.01;71.70;100940.97;146602;589;46020;-73
2021/12/27 05:16:17;;;;;;;;;29.50;27.50;;;;;12.00;71.51;100949.59;146596;571;46016;-72
2021/12/27 05:19:10;;;;;;;;;33.00;31.00;;;;;12.01;72.06;100940.97;146600;618;47008;-89
2021/12/27 05:22:02;;;;;;;;;37.50;31.50;;;;;12.01;71.72;100937.50;146600;590;46016;-87
2021/12/27 05:24:55;;;;;;;;;36.25;29.50;;;;;12.01;71.32;100943.56;146602;572;47008;-82
2021/12/27 05:27:48;;;;;;;;;40.50;33.00;;;;;12.04;71.49;100950.62;146598;587;46017;-79
2021/12/27 05:30:43;;;;;;;;;36.00;32.75;;;;;12.05;71.97;100956.72;146601;582;47010;-80
2021/12/27 05:33:35;;;;;;;;;42.50;34.25;;;;;12.02;71.06;100957.44;146598;790;47010;-82
2021/12/27 05:36:27;;;;;;;;;42.25;34.75;;;;;11.98;71.08;100956.41;146603;604;46020;-82
2021/12/27 05:39:21;;;;;;;;;47.50;36.50;;;;;11.96;71.51;100949.34;146600;610;46016;-83
2021/12/27 05:42:14;;;;;;;;;45.50;36.25;;;;;11.97;71.12;100958.94;146601;672;46008;-85
2021/12/27 05:45:08;;;;;;;;;42.25;33.75;;;;;11.98;71.80;100955.53;146600;577;46016;-86
2021/12/27 05:48:00;;;;;;;;;40.25;33.75;;;;;11.95;71.94;100944.97;146600;572;46021;-83
2021/12/27 05:50:52;;;;;;;;;44.50;35.50;;;;;11.89;71.36;100942.97;146599;623;46016;-84
2021/12/27 05:53:45;;;;;;;;;39.75;32.50;;;;;11.85;71.06;100950.56;146601;620;47008;-85
2021/12/27 05:56:37;;;;;;;;;30.50;27.75;;;;;11.80;72.29;100951.16;146600;633;46016;-87
2021/12/27 05:59:29;;;;;;;;;34.75;30.75;;;;;11.72;72.38;100943.81;146602;574;46020;-86
2021/12/27 06:02:22;;;;;;;;;36.00;29.50;;;;;11.66;73.54;100940.91;146598;571;46021;-77
2021/12/27 06:05:17;;;;;;;;;36.75;30.75;;;;;11.60;72.69;100938.00;146600;566;47008;-78
2021/12/27 06:08:09;;;;;;;;;30.75;29.50;;;;;11.56;73.67;100937.84;146601;638;46010;-80
2021/12/27 06:11:01;;;;;;;;;34.75;29.50;;;;;11.57;74.22;100936.16;146604;625;46021;-81
2021/12/27 06:13:53;;;;;;;;;35.25;30.75;;;;;11.57;74.64;100928.34;146599;598;46016;-83
2021/12/27 06:16:46;;;;;;;;;34.50;32.50;;;;;11.57;73.84;100924.03;146600;576;46008;-82
2021/12/27 06:19:38;;;;;;;;;36.50;31.00;;;;;11.61;72.87;100926.78;146599;593;46031;-76
2021/12/27 06:22:30;;;;;;;;;28.00;25.25;;;;;11.66;73.06;100925.34;146606;569;46008;-77
2021/12/27 06:25:22;;;;;;;;;28.50;25.25;;;;;11.68;72.46;100928.87;146600;588;45915;-77
2021/12/27 06:28:16;;;;;;;;;25.00;24.00;;;;;11.73;71.82;100930.00;146601;652;47008;-79
2021/12/27 06:31:09;;;;;;;;;28.50;23.50;;;;;11.77;71.76;100938.06;146599;646;46016;-75
2021/12/27 06:34:01;;;;;;;;;28.75;26.00;;;;;11.84;71.42;100940.91;146600;597;46021;-77
2021/12/27 06:36:53;;;;;;;;;30.00;24.00;;;;;11.88;71.45;100949.00;146600;611;46010;-77
2021/12/27 06:39:46;;;;;;;;;26.00;25.75;;;;;11.94;71.62;100946.69;146599;601;47008;-77
2021/12/27 06:42:38;;;;;;;;;30.00;27.00;;;;;12.05;72.04;100946.31;146599;623;46008;-77
2021/12/27 06:45:31;;;;;;;;;35.50;31.25;;;;;12.14;71.81;100949.37;146600;608;47008;-76
2021/12/27 06:48:23;;;;;;;;;30.25;27.25;;;;;12.25;71.16;100959.47;146602;586;47010;-74
2021/12/27 06:51:15;;;;;;;;;38.00;31.00;;;;;12.40;70.91;100948.03;146603;569;46020;-74
2021/12/27 06:54:08;;;;;;;;;37.00;32.00;;;;;12.54;70.73;100944.34;146599;619;46016;-73
2021/12/27 06:57:01;;;;;;;;;47.50;38.75;;;;;12.67;70.89;100940.59;146605;576;46020;-74
2021/12/27 06:59:53;;;;;;;;;51.75;42.00;;;;;12.89;71.07;100940.75;146596;594;47012;-70
2021/12/27 07:02:46;;;;;;;;;56.25;43.50;;;;;13.36;69.91;100947.25;146604;677;46008;-76
2021/12/27 07:05:38;;;;;;;;;57.25;45.50;;;;;13.89;68.67;100941.59;146601;597;46016;-75
2021/12/27 07:08:31;;;;;;;;;53.25;43.00;;;;;14.38;67.07;100949.69;146605;612;46009;-76
2021/12/27 07:11:23;;;;;;;;;48.25;39.25;;;;;14.97;65.43;100943.28;146598;608;46016;-74
2021/12/27 07:14:15;;;;;;;;;54.00;43.25;;;;;15.66;63.59;100947.44;146603;584;46020;-74
2021/12/27 07:17:08;;;;;;;;;51.75;43.00;;;;;16.38;62.44;100934.12;146600;597;46017;-75
2021/12/27 07:20:00;;;;;;;;;59.50;46.00;;;;;17.11;60.41;100938.06;146606;667;46008;-76
2021/12/27 07:22:53;;;;;;;;;63.50;50.50;;;;;17.76;59.47;100932.81;146600;622;46010;-79
2021/12/27 07:25:46;;;;;;;;;62.00;48.25;;;;;18.38;57.18;100933.47;146603;614;46008;-78
2021/12/27 07:28:38;;;;;;;;;62.25;49.75;;;;;18.85;56.22;100924.91;146597;569;46016;-79
2021/12/27 07:31:30;;;;;;;;;59.50;47.50;;;;;19.16;55.41;100931.66;146601;584;46020;-79
2021/12/27 07:34:24;;;;;;;;;66.25;53.00;;;;;19.43;54.45;100926.00;146597;566;47010;-78
2021/12/27 07:37:17;;;;;;;;;39.50;34.00;;;;;19.59;51.14;100927.16;146602;572;46008;-77
2021/12/27 07:40:10;;;;;;;;;36.50;28.50;;;;;19.36;49.19;100924.13;146601;686;45915;-76
2021/12/27 07:43:02;;;;;;;;;8.75;6.50;;;;;18.95;49.30;100916.34;146600;607;47008;-77
2021/12/27 07:45:55;;;;;;;;;18.00;14.75;;;;;18.52;50.98;100906.62;146597;636;47011;-76
2021/12/27 07:48:47;;;;;;;;;13.75;12.50;;;;;18.18;51.41;100911.13;146601;619;46020;-76
2021/12/27 07:51:39;;;;;;;;;12.75;10.00;;;;;17.84;50.77;100915.56;146599;573;46016;-75
2021/12/27 07:54:32;;;;;;;;;12.00;11.25;;;;;17.60;52.24;100907.03;146603;675;46021;-75
2021/12/27 07:57:24;;;;;;;;;16.50;13.00;;;;;17.43;53.43;100911.84;146599;605;46016;-76
2021/12/27 08:00:18;;;;;;;;;14.25;10.50;;;;;17.43;54.77;100898.75;146601;669;47008;-76
2021/12/27 08:03:10;;;;;;;;;18.75;17.50;;;;;17.55;54.58;100899.94;146596;647;46016;-77
2021/12/27 08:06:02;;;;;;;;;11.75;11.50;;;;;17.71;52.25;100901.22;146602;653;47008;-74
2021/12/27 08:08:55;;;;;;;;;7.00;6.75;;;;;17.70;51.58;100904.69;146598;634;46017;-76
2021/12/27 08:11:47;;;;;;;;;11.75;8.00;;;;;17.67;54.39;100904.63;146600;574;47008;-76
2021/12/27 08:14:39;;;;;;;;;17.50;16.50;;;;;17.80;55.25;100899.72;146597;572;46016;-76
2021/12/27 08:17:32;;;;;;;;;15.75;15.00;;;;;17.87;52.97;100891.13;146602;660;46021;-77
2021/12/27 08:20:24;;;;;;;;;15.25;11.50;;;;;17.85;52.71;100890.19;146595;585;46027;-78
2021/12/27 08:23:16;;;;;;;;;11.50;10.50;;;;;17.71;51.50;100893.34;146602;631;46021;-81
2021/12/27 08:26:09;;;;;;;;;14.25;12.25;;;;;17.56;53.38;100887.72;146598;570;46034;-71
2021/12/27 08:29:01;;;;;;;;;9.00;7.00;;;;;17.36;52.35;100895.09;146606;600;46020;-72
2021/12/27 08:31:54;;;;;;;;;17.00;13.50;;;;;17.19;52.04;100891.09;146598;640;47010;-71
2021/12/27 08:34:46;;;;;;;;;12.00;12.00;;;;;17.06;53.39;100897.75;146602;574;47008;-72
2021/12/27 08:37:39;;;;;;;;;14.00;12.25;;;;;16.94;53.53;100895.66;146599;614;46017;-71
2021/12/27 08:40:31;;;;;;;;;15.75;12.75;;;;;16.90;54.59;100885.09;146600;702;47008;-72
2021/12/27 08:43:23;;;;;;;;;13.50;11.75;;;;;16.85;54.89;100880.63;146599;630;46016;-73
2021/12/27 08:46:16;;;;;;;;;8.33;6.33;;;;;16.82;53.07;100885.75;146603;646;46021;-72
2021/12/27 08:49:08;;;;;;;;;9.75;8.25;;;;;16.79;52.74;100893.53;146599;569;46028;-72
2021/12/27 08:52:01;;;;;;;;;13.00;11.00;;;;;16.79;53.03;100883.06;146605;654;46008;-71
2021/12/27 08:54:53;;;;;;;;;9.75;7.50;;;;;16.82;54.36;100891.00;146599;594;46017;-73
2021/12/27 08:57:46;;;;;;;;;16.50;12.75;;;;;16.88;54.05;100886.75;146603;569;47008;-73
2021/12/27 09:00:39;;;;;;;;;5.00;5.00;;;;;16.96;53.74;100880.91;146596;619;47012;-73
2021/12/27 09:03:31;;;;;;;;;11.00;9.00;;;;;17.01;52.62;100874.06;146602;563;46010;-72
2021/12/27 09:06:23;;;;;;;;;14.00;12.50;;;;;17.04;52.51;100874.16;146599;686;46016;-72
2021/12/27 09:09:15;;;;;;;;;6.67;6.33;;;;;17.08;53.42;100876.00;146601;642;46008;-72
2021/12/27 09:12:08;;;;;;;;;15.25;15.25;;;;;17.11;52.60;100879.56;146597;589;47010;-72
2021/12/27 09:15:00;;;;;;;;;7.25;5.75;;;;;17.15;53.08;100865.69;146602;570;47008;-73
2021/12/27 09:17:52;;;;;;;;;9.50;6.25;;;;;17.19;53.11;100875.38;146599;588;46028;-72
2021/12/27 09:20:44;;;;;;;;;22.25;19.75;;;;;17.27;52.17;100871.25;146601;555;46020;-72
2021/12/27 09:23:36;;;;;;;;;7.50;6.00;;;;;17.29;52.26;100867.81;146600;623;46012;-72
2021/12/27 09:26:28;;;;;;;;;7.33;6.00;;;;;17.29;52.57;100864.31;146603;621;46020;-74
2021/12/27 09:29:20;;;;;;;;;13.25;10.50;;;;;17.31;53.04;100855.62;146599;602;46011;-74
2021/12/27 09:32:16;;;;;;;;;6.67;6.00;;;;;17.36;53.41;100861.00;146604;682;46008;-72
2021/12/27 09:35:09;;;;;;;;;7.00;6.00;;;;;17.36;52.69;100857.50;146600;612;46010;-73
2021/12/27 09:38:01;;;;;;;;;9.00;7.75;;;;;17.37;51.96;100854.03;146601;625;46021;-72
2021/12/27 09:40:53;;;;;;;;;3.50;3.50;;;;;17.33;51.53;100853.06;146598;570;46010;-73
2021/12/27 09:43:46;;;;;;;;;4.00;4.00;;;;;17.33;51.47;100844.31;146602;579;47008;-71
2021/12/27 09:46:38;;;;;;;;;11.25;9.25;;;;;17.38;52.07;100840.94;146600;575;46915;-67
2021/12/27 09:49:31;;;;;;;;;7.67;6.67;;;;;17.40;51.38;100828.78;146604;650;46020;-72
2021/12/27 09:52:23;;;;;;;;;7.33;7.00;;;;;17.45;51.54;100834.16;146600;642;46016;-71
2021/12/27 09:55:16;;;;;;;;;6.00;4.00;;;;;17.41;50.52;100817.44;146603;617;46020;-72
2021/12/27 09:58:08;;;;;;;;;12.00;8.75;;;;;17.38;50.77;100817.34;146599;631;46016;-73
2021/12/27 10:01:03;;;;;;;;;8.67;5.67;;;;;17.36;51.83;100811.22;146602;628;47008;-73
2021/12/27 10:04:01;;;;;;;;;12.25;11.75;;;;;17.36;51.94;100812.94;146600;617;46915;-72
2021/12/27 10:06:54;;;;;;;;;6.75;6.00;;;;;17.30;51.01;100814.56;146601;606;46021;-73
2021/12/27 10:09:46;;;;;;;;;6.33;5.33;;;;;17.23;50.62;100796.03;146600;565;46884;-73
2021/12/27 10:12:39;;;;;;;;;5.25;3.50;;;;;17.22;51.64;100794.25;146602;616;47008;-73
2021/12/27 10:15:47;;;;;;;;;10.50;9.00;;;;;17.19;52.98;100784.56;146598;717;46010;-72
2021/12/27 10:18:42;;;;;;;;;3.00;3.00;;;;;17.15;51.40;100781.84;146601;694;46025;-72
2021/12/27 10:21:34;;;;;;;;;5.25;4.50;;;;;17.11;51.30;100790.47;146597;587;46017;-71
2021/12/27 10:24:28;;;;;;;;;6.00;4.25;;;;;17.13;51.81;100788.75;146602;709;46008;-72
2021/12/27 10:27:22;;;;;;;;;6.50;5.00;;;;;17.13;51.79;100788.75;146599;619;47010;-72
2021/12/27 10:30:17;;;;;;;;;4.75;4.25;;;;;17.15;51.78;100781.84;146602;573;46008;-71
2021/12/27 10:33:26;;;;;;;;;7.33;6.00;;;;;17.15;52.29;100779.22;146598;597;47012;-72
2021/12/27 10:36:19;;;;;;;;;5.00;5.00;;;;;17.08;50.81;100788.66;146603;671;45021;-72
2021/12/27 10:39:11;;;;;;;;;7.25;6.00;;;;;17.09;51.36;100779.94;146598;687;46016;-72
2021/12/27 10:42:13;;;;;;;;;6.00;4.00;;;;;17.11;52.11;100770.41;146601;641;46008;-72
2021/12/27 10:45:13;;;;;;;;;6.00;5.33;;;;;17.13;51.57;100778.28;146601;578;46017;-73
2021/12/27 10:48:05;;;;;;;;;7.00;5.33;;;;;17.12;51.81;100768.66;146601;624;47008;-73
2021/12/27 10:50:58;;;;;;;;;4.67;4.67;;;;;17.10;51.07;100765.97;146598;673;47010;-72
2021/12/27 10:53:59;;;;;;;;;10.50;8.00;;;;;17.08;52.45;100755.47;146604;703;46010;-72
2021/12/27 10:57:02;;;;;;;;;3.67;3.33;;;;;17.07;51.83;100745.84;146601;642;46016;-70
2021/12/27 10:59:54;;;;;;;;;10.50;6.75;;;;;17.08;51.27;100751.97;146600;664;47008;-72
2021/12/27 11:02:46;;;;;;;;;5.00;5.00;;;;;17.09;50.71;100754.63;146599;592;46016;-73
2021/12/27 11:05:40;;;;;;;;;7.00;5.25;;;;;17.13;51.83;100752.06;146600;594;46021;-71
2021/12/27 11:08:32;;;;;;;;;8.50;6.50;;;;;17.16;51.32;100744.28;146600;671;46915;-72
2021/12/27 11:11:28;;;;;;;;;4.00;3.00;;;;;17.22;51.57;100741.81;146599;609;46008;-72
2021/12/27 11:14:20;;;;;;;;;4.00;2.50;;;;;17.24;50.42;100740.12;146599;656;46029;-72
2021/12/27 11:17:13;;;;;;;;;11.00;9.00;;;;;17.33;50.74;100749.97;146602;613;47008;-72
2021/12/27 11:20:05;;;;;;;;;9.00;6.25;;;;;17.43;51.78;100754.56;146600;580;46010;-71
2021/12/27 11:23:00;;;;;;;;;5.00;3.33;;;;;17.57;50.46;100747.03;146604;683;46021;-72
2021/12/27 11:25:52;;;;;;;;;5.00;4.67;;;;;17.68;50.25;100749.03;146601;575;46016;-72
2021/12/27 11:28:49;;;;;;;;;9.00;8.50;;;;;17.81;50.26;100752.84;146603;569;46020;-72
2021/12/27 11:31:41;;;;;;;;;9.67;6.33;;;;;17.98;50.53;100754.12;146600;632;46016;-72
2021/12/27 11:34:33;;;;;;;;;6.00;5.00;;;;;18.22;50.67;100747.59;146601;567;46020;-73
2021/12/27 11:37:37;;;;;;;;;5.33;5.00;;;;;18.50;50.51;100756.91;146599;603;46016;-72
2021/12/27 11:40:29;;;;;;;;;4.67;4.33;;;;;18.77;49.54;100737.31;146602;655;46020;-73
2021/12/27 11:43:22;;;;;;;;;10.50;9.50;;;;;18.97;48.93;100735.03;146596;601;47011;-74
2021/12/27 11:46:14;;;;;;;;;10.67;9.33;;;;;19.06;46.25;100754.47;146600;665;47010;-74
2021/12/27 11:49:06;;;;;;;;;6.67;5.67;;;;;19.11;47.06;100746.69;146600;667;46915;-74
2021/12/27 11:52:29;;;;;;;;;8.33;8.33;;;;;19.14;47.75;100747.62;146604;602;46020;-74
2021/12/27 11:55:22;;;;;;;;;3.00;3.00;;;;;19.18;48.36;100747.66;146599;571;46016;-73
2021/12/27 11:58:35;;;;;;;;;17.50;14.75;;;;;19.20;45.97;100744.22;146603;636;46021;-73
2021/12/27 12:01:46;;;;;;;;;27.75;24.75;;;;;18.32;46.96;100589.47;146597;616;47012;-73
2021/12/27 12:04:50;;;;;;;;;9.00;9.00;;;;;19.18;47.55;100748.53;146602;569;46021;-73
2021/12/27 12:07:54;;;;;;;;;7.00;6.00;;;;;19.09;46.21;100745.75;146600;571;46016;-74
2021/12/27 12:11:11;;;;;;;;;4.67;4.00;;;;;19.07;49.72;100742.25;146605;680;46020;-72
2021/12/27 12:14:38;;;;;;;;;6.33;5.33;;;;;18.62;50.20;100659.09;146599;590;46030;-73
2021/12/27 12:17:59;;;;;;;;;9.00;8.00;;;;;18.35;51.05;100588.59;146603;661;46020;-72
2021/12/27 12:20:51;;;;;;;;;10.50;9.75;;;;;19.27;48.52;100746.06;146600;592;46016;-73
2021/12/27 12:23:58;;;;;;;;;11.25;10.25;;;;;19.23;49.44;100735.50;146602;716;46020;-72
2021/12/27 12:27:14;;;;;;;;;5.00;3.67;;;;;19.08;48.18;100738.75;146599;607;46915;-73
2021/12/27 12:30:07;;;;;;;;;10.00;7.33;;;;;18.93;48.73;100739.34;146601;593;46020;-72
2021/12/27 12:33:27;;;;;;;;;8.00;7.00;;;;;18.21;49.97;100635.62;146601;563;46016;-74
2021/12/27 12:36:19;;;;;;;;;5.67;4.67;;;;;18.73;49.60;100735.50;146602;615;46023;-73
2021/12/27 12:39:11;;;;;;;;;7.00;5.67;;;;;18.70;50.47;100749.44;146601;631;46016;-74
2021/12/27 12:42:16;;;;;;;;;6.33;4.67;;;;;18.66;51.84;100745.87;146604;592;46021;-74
2021/12/27 12:45:11;;;;;;;;;4.67;4.33;;;;;18.63;51.58;100745.81;146600;608;46016;-73
2021/12/27 12:48:04;;;;;;;;;2.67;2.67;;;;;18.61;50.60;100752.75;146605;633;46008;-74
2021/12/27 12:50:58;;;;;;;;;6.67;5.67;;;;;18.54;50.54;100744.75;146600;577;46017;-73
2021/12/27 12:53:51;;;;;;;;;7.67;6.67;;;;;18.51;51.10;100757.81;146603;601;46020;-73
2021/12/27 12:56:43;;;;;;;;;9.00;7.00;;;;;18.48;52.57;100757.78;146598;624;47012;-73
2021/12/27 12:59:39;;;;;;;;;9.25;8.25;;;;;18.42;51.99;100751.53;146602;616;47008;-74
2021/12/27 13:02:36;;;;;;;;;7.67;7.33;;;;;18.37;52.15;100757.53;146601;563;46016;-74
2021/12/27 13:05:28;;;;;;;;;8.00;7.33;;;;;18.33;52.75;100764.47;146601;689;46008;-74
2021/12/27 13:08:20;;;;;;;;;27.75;25.00;;;;;18.26;52.73;100759.97;146599;583;46016;-73
2021/12/27 13:11:13;;;;;;;;;28.50;25.00;;;;;18.19;53.07;100765.91;146603;561;46021;-73
2021/12/27 13:14:05;;;;;;;;;35.50;31.25;;;;;18.11;53.66;100775.38;146596;620;47010;-72
2021/12/27 13:16:58;;;;;;;;;48.25;38.25;;;;;18.01;53.46;100784.78;146601;578;46008;-74
2021/12/27 13:20:12;;;;;;;;;45.75;36.00;;;;;17.87;53.99;100781.84;146601;579;46017;-73